createdAt,value
2018-03-07T00:00:43.592Z,5.70
2018-03-07T00:03:16.274Z,5.70
2018-03-07T00:05:49.448Z,5.70
2018-03-07T00:08:22.162Z,5.60
2018-03-07T00:10:54.772Z,5.60
2018-03-07T00:13:28.022Z,5.60
2018-03-07T00:16:01.513Z,5.60
2018-03-07T00:18:34.223Z,5.50
2018-03-07T00:21:06.740Z,5.50
2018-03-07T00:23:39.313Z,5.50
2018-03-07T00:26:11.680Z,5.50
2018-03-07T00:28:44.191Z,5.50
2018-03-07T00:31:16.651Z,5.40
2018-03-07T00:33:49.966Z,5.30
2018-03-07T00:36:22.614Z,5.40
2018-03-07T00:38:55.170Z,5.30
2018-03-07T00:41:27.702Z,5.30
2018-03-07T00:44:01.725Z,5.30
2018-03-07T00:46:34.287Z,5.30
2018-03-07T00:49:07.523Z,5.20
2018-03-07T00:51:40.849Z,5.20
2018-03-07T00:54:13.575Z,5.10
2018-03-07T00:56:45.967Z,5.10
2018-03-07T00:59:18.606Z,5.10
2018-03-07T01:01:52.703Z,5.00
2018-03-07T01:04:25.568Z,5.00
2018-03-07T01:06:58.079Z,5.00
2018-03-07T01:09:30.584Z,4.90
2018-03-07T01:12:03.046Z,4.90
2018-03-07T01:14:36.218Z,4.80
2018-03-07T01:17:08.862Z,4.80
2018-03-07T01:19:41.292Z,4.80
2018-03-07T01:22:14.453Z,4.70
2018-03-07T01:24:47.303Z,4.70
2018-03-07T01:27:26.968Z,4.60
2018-03-07T01:29:59.812Z,4.60
2018-03-07T01:32:32.308Z,4.50
2018-03-07T01:35:05.734Z,4.50
2018-03-07T01:37:38.499Z,4.50
2018-03-07T01:40:11.082Z,4.50
2018-03-07T01:42:43.443Z,4.50
2018-03-07T01:45:16.547Z,4.50
2018-03-07T01:47:49.102Z,4.50
2018-03-07T01:50:22.465Z,4.40
2018-03-07T01:52:55.176Z,4.40
2018-03-07T01:55:27.601Z,4.40
2018-03-07T01:58:00.758Z,4.40
2018-03-07T02:00:33.468Z,4.40
2018-03-07T02:03:05.874Z,4.30
2018-03-07T02:05:39.214Z,4.30
2018-03-07T02:08:11.776Z,4.30
2018-03-07T02:10:44.190Z,4.30
2018-03-07T02:13:17.540Z,4.30
2018-03-07T02:15:50.060Z,4.30
2018-03-07T02:18:22.591Z,4.30
2018-03-07T02:20:55.045Z,4.20
2018-03-07T02:23:27.634Z,4.20
2018-03-07T02:26:01.006Z,4.20
2018-03-07T02:28:33.678Z,4.20
2018-03-07T02:31:06.188Z,4.20
2018-03-07T02:33:40.290Z,4.20
2018-03-07T02:36:31.749Z,4.20
2018-03-07T02:39:05.582Z,4.20
2018-03-07T02:41:38.421Z,4.20
2018-03-07T02:44:10.928Z,4.30
2018-03-07T02:46:43.412Z,4.30
2018-03-07T02:49:15.879Z,4.40
2018-03-07T02:51:48.470Z,4.40
2018-03-07T02:54:21.764Z,4.50
2018-03-07T02:56:54.159Z,4.50
2018-03-07T02:59:27.534Z,4.50
2018-03-07T03:01:59.849Z,4.60
2018-03-07T03:04:33.373Z,4.60
2018-03-07T03:07:05.746Z,4.60
2018-03-07T03:09:38.082Z,4.70
2018-03-07T03:12:10.521Z,4.70
2018-03-07T03:14:43.223Z,4.70
2018-03-07T03:17:16.462Z,4.70
2018-03-07T03:19:49.858Z,4.80
2018-03-07T03:22:23.098Z,4.80
2018-03-07T03:24:56.464Z,4.80
2018-03-07T03:27:28.869Z,4.80
2018-03-07T03:30:02.015Z,4.90
2018-03-07T03:32:34.665Z,4.90
2018-03-07T03:35:07.281Z,4.90
2018-03-07T03:37:39.692Z,4.90
2018-03-07T03:40:12.108Z,4.90
2018-03-07T03:42:44.627Z,4.90
2018-03-07T03:45:17.094Z,4.90
2018-03-07T03:47:50.464Z,4.90
2018-03-07T03:50:23.952Z,5.00
2018-03-07T03:52:57.732Z,4.90
2018-03-07T03:55:30.129Z,5.00
2018-03-07T03:58:02.892Z,4.90
2018-03-07T04:00:35.276Z,4.90
2018-03-07T04:03:07.704Z,5.00
2018-03-07T04:05:40.164Z,5.00
2018-03-07T04:08:12.495Z,5.00
2018-03-07T04:10:45.582Z,5.00
2018-03-07T04:13:19.002Z,5.00
2018-03-07T04:15:52.369Z,5.00
2018-03-07T04:18:25.903Z,5.00
2018-03-07T04:20:58.585Z,5.00
2018-03-07T04:23:31.862Z,5.00
2018-03-07T04:26:04.699Z,5.00
2018-03-07T04:28:37.054Z,5.10
2018-03-07T04:31:10.215Z,5.10
2018-03-07T04:33:43.629Z,5.10
2018-03-07T04:36:16.231Z,5.10
2018-03-07T04:38:48.635Z,5.10
2018-03-07T04:41:22.023Z,5.10
2018-03-07T04:43:54.778Z,5.10
2018-03-07T04:46:27.187Z,5.20
2018-03-07T04:48:59.870Z,5.20
2018-03-07T04:51:32.204Z,5.10
2018-03-07T04:54:04.665Z,5.20
2018-03-07T04:56:37.379Z,5.20
2018-03-07T04:59:10.537Z,5.20
2018-03-07T05:01:43.267Z,5.20
2018-03-07T05:04:15.815Z,5.20
2018-03-07T05:06:49.026Z,5.30
2018-03-07T05:09:21.763Z,5.30
2018-03-07T05:11:54.272Z,5.30
2018-03-07T05:14:27.001Z,5.30
2018-03-07T05:16:59.318Z,5.30
2018-03-07T05:19:31.975Z,5.40
2018-03-07T05:22:04.306Z,5.40
2018-03-07T05:24:36.877Z,5.40
2018-03-07T05:27:09.256Z,5.40
2018-03-07T05:29:41.748Z,5.40
2018-03-07T05:32:14.143Z,5.40
2018-03-07T05:34:46.601Z,5.40
2018-03-07T05:37:19.070Z,5.40
2018-03-07T05:39:51.397Z,5.40
2018-03-07T05:42:25.452Z,5.40
2018-03-07T05:44:58.434Z,5.40
2018-03-07T05:47:31.546Z,5.40
2018-03-07T05:50:04.662Z,5.40
2018-03-07T05:52:37.662Z,5.40
2018-03-07T05:55:17.159Z,5.40
2018-03-07T05:57:49.878Z,5.40
2018-03-07T06:00:23.412Z,5.40
2018-03-07T06:02:55.851Z,5.40
2018-03-07T06:05:28.482Z,5.40
2018-03-07T06:08:00.949Z,5.40
2018-03-07T06:10:33.425Z,5.40
2018-03-07T06:13:06.353Z,5.50
2018-03-07T06:15:39.481Z,5.50
2018-03-07T06:18:13.006Z,5.50
2018-03-07T06:20:45.947Z,5.50
2018-03-07T06:23:18.357Z,5.60
2018-03-07T06:25:50.827Z,5.60
2018-03-07T06:28:23.956Z,5.70
2018-03-07T06:30:57.264Z,5.80
2018-03-07T06:33:29.930Z,5.70
2018-03-07T06:36:02.488Z,5.90
2018-03-07T06:38:35.722Z,6.10
2018-03-07T06:41:09.217Z,6.10
2018-03-07T06:43:41.861Z,6.10
2018-03-07T06:46:14.284Z,6.20
2018-03-07T06:48:48.371Z,6.60
2018-03-07T06:51:21.764Z,6.70
2018-03-07T06:53:54.357Z,6.70
2018-03-07T06:56:27.741Z,6.90
2018-03-07T06:59:01.046Z,7.10
2018-03-07T07:01:33.801Z,7.10
2018-03-07T07:04:06.268Z,7.10
2018-03-07T07:06:39.538Z,7.20
2018-03-07T07:09:12.174Z,7.10
2018-03-07T07:11:45.587Z,7.10
2018-03-07T07:14:19.588Z,7.10
2018-03-07T07:16:52.423Z,7.10
2018-03-07T07:19:25.711Z,7.10
2018-03-07T07:21:58.183Z,7.10
2018-03-07T07:24:30.585Z,7.10
2018-03-07T07:27:03.235Z,7.10
2018-03-07T07:29:35.678Z,7.10
2018-03-07T07:32:08.422Z,7.30
2018-03-07T07:34:40.832Z,7.40
2018-03-07T07:37:14.044Z,7.60
2018-03-07T07:39:46.693Z,7.60
2018-03-07T07:42:19.866Z,7.70
2018-03-07T07:44:52.504Z,7.70
2018-03-07T07:47:25.077Z,7.90
2018-03-07T07:49:57.510Z,7.90
2018-03-07T07:52:30.925Z,8.00
2018-03-07T07:55:04.426Z,8.10
2018-03-07T07:57:37.643Z,8.30
2018-03-07T08:00:11.122Z,8.40
2018-03-07T08:02:44.617Z,8.60
2018-03-07T08:05:18.633Z,9.50
2018-03-07T08:07:51.205Z,9.40
2018-03-07T08:10:24.621Z,9.60
2018-03-07T08:12:57.150Z,9.60
2018-03-07T08:15:29.616Z,9.60
2018-03-07T08:18:02.203Z,9.50
2018-03-07T08:20:35.560Z,9.50
2018-03-07T08:23:09.663Z,9.50
2018-03-07T08:25:42.317Z,9.40
2018-03-07T08:28:15.440Z,9.40
2018-03-07T08:30:49.004Z,9.40
2018-03-07T08:33:21.811Z,9.40
2018-03-07T08:35:55.865Z,9.60
2018-03-07T08:38:28.543Z,9.50
2018-03-07T08:41:01.056Z,9.70
2018-03-07T08:43:33.454Z,9.80
2018-03-07T08:46:06.859Z,9.90
2018-03-07T08:48:39.475Z,9.90
2018-03-07T08:51:11.770Z,9.90
2018-03-07T08:53:44.147Z,9.90
2018-03-07T08:56:16.589Z,10.00
2018-03-07T08:58:49.024Z,10.00
2018-03-07T09:01:22.379Z,10.10
2018-03-07T09:03:55.791Z,10.10
2018-03-07T09:06:28.351Z,10.10
2018-03-07T09:09:01.707Z,10.20
2018-03-07T09:11:35.022Z,10.20
2018-03-07T09:14:09.232Z,10.20
2018-03-07T09:16:42.611Z,10.10
2018-03-07T09:19:15.289Z,10.10
2018-03-07T09:21:48.631Z,10.10
2018-03-07T09:24:22.023Z,10.00
2018-03-07T09:26:55.153Z,10.30
2018-03-07T09:29:28.006Z,10.30
2018-03-07T09:32:00.571Z,10.70
2018-03-07T09:34:33.015Z,11.20
2018-03-07T09:37:05.462Z,11.40
2018-03-07T09:39:38.669Z,11.40
2018-03-07T09:42:11.393Z,11.40
2018-03-07T09:44:44.111Z,11.40
2018-03-07T09:47:17.268Z,11.40
2018-03-07T09:49:50.073Z,11.40
2018-03-07T09:52:22.516Z,11.40
2018-03-07T09:54:55.041Z,11.40
2018-03-07T09:57:28.461Z,11.40
2018-03-07T10:00:01.782Z,11.80
2018-03-07T10:02:34.339Z,11.80
2018-03-07T10:05:07.064Z,11.90
2018-03-07T10:07:40.191Z,11.90
2018-03-07T10:10:12.949Z,11.90
2018-03-07T10:12:46.233Z,11.80
2018-03-07T10:15:19.664Z,11.90
2018-03-07T10:17:53.680Z,12.80
2018-03-07T10:20:26.254Z,12.80
2018-03-07T10:22:58.701Z,12.80
2018-03-07T10:25:31.330Z,12.70
2018-03-07T10:28:04.647Z,12.60
2018-03-07T10:30:37.100Z,12.50
2018-03-07T10:33:15.620Z,12.20
2018-03-07T10:35:49.041Z,11.90
2018-03-07T10:38:21.505Z,11.80
2018-03-07T10:40:53.985Z,11.60
2018-03-07T10:43:26.469Z,11.50
2018-03-07T10:45:59.757Z,11.40
2018-03-07T10:48:32.398Z,11.40
2018-03-07T10:51:04.857Z,11.30
2018-03-07T10:53:37.441Z,11.20
2018-03-07T10:56:10.801Z,11.00
2018-03-07T10:58:54.672Z,11.00
2018-03-07T11:01:27.140Z,11.00
2018-03-07T11:03:59.652Z,10.90
2018-03-07T11:06:32.092Z,10.90
2018-03-07T11:09:04.556Z,10.90
2018-03-07T11:11:36.962Z,10.80
2018-03-07T11:14:10.256Z,11.00
2018-03-07T11:16:43.379Z,11.20
2018-03-07T11:19:16.116Z,11.10
2018-03-07T11:21:49.895Z,11.20
2018-03-07T11:24:23.757Z,11.30
2018-03-07T11:26:57.227Z,11.30
2018-03-07T11:29:29.797Z,11.30
2018-03-07T11:32:02.310Z,11.40
2018-03-07T11:34:34.622Z,11.40
2018-03-07T11:37:07.059Z,11.30
2018-03-07T11:39:39.462Z,11.30
2018-03-07T11:42:11.880Z,11.30
2018-03-07T11:44:44.367Z,11.40
2018-03-07T11:47:16.863Z,11.40
2018-03-07T11:49:49.164Z,11.40
2018-03-07T11:52:22.684Z,11.30
2018-03-07T11:54:55.299Z,11.30
2018-03-07T11:57:27.853Z,11.30
2018-03-07T12:00:00.363Z,11.30
2018-03-07T12:02:33.464Z,11.30
2018-03-07T12:05:06.069Z,11.30
2018-03-07T12:07:38.584Z,11.20
2018-03-07T12:10:10.976Z,11.10
2018-03-07T12:12:43.316Z,11.00
2018-03-07T12:15:16.440Z,10.90
2018-03-07T12:17:49.581Z,10.80
2018-03-07T12:20:23.028Z,10.80
2018-03-07T12:22:55.853Z,10.80
2018-03-07T12:25:29.165Z,10.90
2018-03-07T12:28:01.613Z,11.00
2018-03-07T12:30:34.026Z,11.20
2018-03-07T12:33:06.441Z,11.30
2018-03-07T12:35:39.716Z,11.30
2018-03-07T12:38:12.948Z,11.20
2018-03-07T12:40:45.525Z,11.20
2018-03-07T12:43:17.980Z,11.10
2018-03-07T12:45:51.321Z,11.00
2018-03-07T12:48:24.466Z,11.00
2018-03-07T12:50:57.181Z,11.00
2018-03-07T12:53:29.627Z,11.10
2018-03-07T12:56:03.802Z,11.30
2018-03-07T12:58:36.515Z,11.30
2018-03-07T13:01:09.113Z,11.40
2018-03-07T13:03:43.253Z,11.40
2018-03-07T13:06:16.138Z,11.40
2018-03-07T13:08:48.646Z,11.40
2018-03-07T13:11:22.797Z,11.40
2018-03-07T13:13:55.646Z,11.40
2018-03-07T13:16:28.831Z,11.40
2018-03-07T13:19:01.630Z,11.20
2018-03-07T13:21:34.231Z,11.10
2018-03-07T13:24:07.387Z,10.70
2018-03-07T13:26:40.151Z,10.60
2018-03-07T13:29:13.466Z,10.40
2018-03-07T13:31:46.801Z,10.40
2018-03-07T13:34:20.277Z,10.30
2018-03-07T13:36:53.037Z,10.30
2018-03-07T13:39:26.404Z,10.30
2018-03-07T13:41:59.629Z,10.20
2018-03-07T13:44:32.358Z,10.20
2018-03-07T13:47:05.529Z,10.20
2018-03-07T13:49:38.248Z,10.20
2018-03-07T13:52:11.662Z,10.20
2018-03-07T13:54:44.173Z,10.30
2018-03-07T13:57:16.725Z,10.30
2018-03-07T13:59:50.150Z,10.30
2018-03-07T14:02:23.519Z,10.40
2018-03-07T14:04:55.966Z,10.50
2018-03-07T14:07:28.423Z,10.50
2018-03-07T14:10:00.887Z,10.50
2018-03-07T14:12:34.365Z,10.40
2018-03-07T14:15:06.735Z,10.50
2018-03-07T14:17:40.006Z,10.50
2018-03-07T14:20:13.484Z,10.40
2018-03-07T14:22:46.209Z,10.40
2018-03-07T14:25:18.709Z,10.40
2018-03-07T14:27:51.334Z,10.40
2018-03-07T14:30:24.639Z,10.40
2018-03-07T14:32:57.280Z,10.40
2018-03-07T14:35:30.845Z,10.30
2018-03-07T14:38:03.499Z,10.30
2018-03-07T14:40:37.898Z,10.20
2018-03-07T14:43:10.461Z,10.10
2018-03-07T14:45:43.908Z,10.10
2018-03-07T14:48:17.340Z,10.00
2018-03-07T14:50:51.805Z,10.00
2018-03-07T14:53:25.363Z,10.00
2018-03-07T14:55:59.120Z,9.90
2018-03-07T14:58:32.716Z,9.90
2018-03-07T15:01:06.735Z,9.70
2018-03-07T15:03:40.595Z,9.80
2018-03-07T15:06:14.250Z,9.70
2018-03-07T15:08:47.710Z,9.60
2018-03-07T15:11:21.604Z,9.50
2018-03-07T15:13:55.892Z,9.40
2018-03-07T15:16:30.548Z,9.40
2018-03-07T15:19:05.855Z,9.30
2018-03-07T15:21:41.139Z,9.20
2018-03-07T15:24:16.390Z,9.20
2018-03-07T15:26:51.318Z,9.20
2018-03-07T15:29:25.726Z,9.20
2018-03-07T15:32:01.114Z,9.10
2018-03-07T15:34:36.272Z,9.10
2018-03-07T15:37:11.061Z,9.10
2018-03-07T15:39:45.201Z,9.10
2018-03-07T15:42:19.903Z,9.10
2018-03-07T15:44:54.247Z,9.00
2018-03-07T15:47:28.781Z,9.00
2018-03-07T15:50:03.509Z,8.90
2018-03-07T15:52:38.513Z,8.90
2018-03-07T15:55:13.585Z,8.90
2018-03-07T15:57:47.656Z,8.90
2018-03-07T16:00:21.913Z,8.80
2018-03-07T16:02:56.507Z,8.80
2018-03-07T16:05:30.789Z,8.80
2018-03-07T16:08:05.475Z,8.70
2018-03-07T16:10:39.810Z,8.70
2018-03-07T16:13:14.347Z,8.70
2018-03-07T16:15:48.852Z,8.70
2018-03-07T16:18:23.318Z,8.60
2018-03-07T16:20:57.813Z,8.60
2018-03-07T16:23:34.046Z,8.50
2018-03-07T16:26:09.114Z,8.50
2018-03-07T16:28:44.228Z,8.50
2018-03-07T16:31:18.413Z,8.50
2018-03-07T16:33:54.779Z,8.40
2018-03-07T16:36:29.345Z,8.40
2018-03-07T16:39:04.839Z,8.30
2018-03-07T16:41:39.014Z,8.30
2018-03-07T16:44:13.540Z,8.30
2018-03-07T16:46:48.070Z,8.20
2018-03-07T16:49:22.324Z,8.20
2018-03-07T16:51:57.379Z,8.10
2018-03-07T16:54:32.094Z,8.10
2018-03-07T16:57:07.014Z,8.10
2018-03-07T16:59:41.629Z,8.10
2018-03-07T17:02:16.608Z,8.00
2018-03-07T17:04:51.522Z,8.00
2018-03-07T17:07:26.028Z,8.00
2018-03-07T17:10:00.958Z,7.90
2018-03-07T17:12:35.768Z,7.90
2018-03-07T17:15:11.257Z,7.90
2018-03-07T17:17:45.489Z,7.90
2018-03-07T17:20:21.704Z,7.90
2018-03-07T17:22:57.109Z,7.80
2018-03-07T17:25:31.832Z,7.80
2018-03-07T17:28:07.906Z,7.80
2018-03-07T17:30:45.290Z,7.80
2018-03-07T17:33:20.995Z,7.80
2018-03-07T17:35:55.657Z,7.80
2018-03-07T17:38:30.228Z,7.70
2018-03-07T17:41:04.483Z,7.70
2018-03-07T17:43:39.031Z,7.70
2018-03-07T17:46:14.262Z,7.60
2018-03-07T17:48:49.808Z,7.60
2018-03-07T17:51:25.203Z,7.60
2018-03-07T17:53:59.924Z,7.50
2018-03-07T17:56:36.120Z,7.50
2018-03-07T17:59:11.834Z,7.50
2018-03-07T18:01:47.189Z,7.40
2018-03-07T18:04:24.240Z,7.40
2018-03-07T18:07:00.551Z,7.40
2018-03-07T18:09:34.728Z,7.40
2018-03-07T18:12:10.277Z,7.40
2018-03-07T18:14:45.373Z,7.40
2018-03-07T18:17:21.582Z,7.30
2018-03-07T18:19:58.401Z,7.30
2018-03-07T18:22:32.436Z,7.30
2018-03-07T18:25:07.688Z,7.30
2018-03-07T18:27:42.187Z,7.30
2018-03-07T18:30:18.763Z,7.20
2018-03-07T18:32:53.223Z,7.30
2018-03-07T18:35:28.383Z,7.20
2018-03-07T18:38:04.263Z,7.20
2018-03-07T18:40:40.062Z,7.20
2018-03-07T18:43:15.208Z,7.20
2018-03-07T18:45:50.767Z,7.20
2018-03-07T18:48:25.867Z,7.20
2018-03-07T18:51:02.827Z,7.10
2018-03-07T18:53:38.636Z,7.10
2018-03-07T18:56:13.322Z,7.10
2018-03-07T18:58:49.645Z,7.10
2018-03-07T19:01:24.401Z,7.10
2018-03-07T19:04:00.765Z,7.00
2018-03-07T19:06:36.620Z,7.00
2018-03-07T19:09:11.418Z,7.00
2018-03-07T19:11:47.293Z,7.00
2018-03-07T19:14:23.598Z,6.90
2018-03-07T19:17:01.694Z,6.90
2018-03-07T19:19:37.495Z,6.80
2018-03-07T19:22:14.032Z,6.80
2018-03-07T19:24:49.274Z,6.80
2018-03-07T19:27:24.827Z,6.80
2018-03-07T19:30:01.287Z,6.70
2018-03-07T19:32:37.502Z,6.70
2018-03-07T19:35:13.607Z,6.70
2018-03-07T19:37:52.519Z,6.70
2018-03-07T19:40:27.907Z,6.60
2018-03-07T19:43:04.470Z,6.60
2018-03-07T19:45:39.011Z,6.60
2018-03-07T19:48:15.023Z,6.50
2018-03-07T19:50:51.904Z,6.50
2018-03-07T19:53:27.277Z,6.50
2018-03-07T19:56:03.100Z,6.40
2018-03-07T19:58:39.421Z,6.40
2018-03-07T20:01:15.928Z,6.40
2018-03-07T20:03:51.706Z,6.30
2018-03-07T20:06:27.739Z,6.30
2018-03-07T20:09:04.684Z,6.30
2018-03-07T20:11:39.035Z,6.30
2018-03-07T20:14:14.925Z,6.30
2018-03-07T20:16:49.747Z,6.20
2018-03-07T20:19:25.967Z,6.30
2018-03-07T20:22:00.955Z,6.20
2018-03-07T20:24:36.946Z,6.20
2018-03-07T20:27:11.782Z,6.20
2018-03-07T20:29:46.888Z,6.20
2018-03-07T20:32:21.482Z,6.20
2018-03-07T20:34:56.684Z,6.20
2018-03-07T20:37:31.696Z,6.20
2018-03-07T20:40:07.919Z,6.10
2018-03-07T20:42:43.261Z,6.10
2018-03-07T20:45:18.491Z,6.10
2018-03-07T20:47:54.428Z,6.10
2018-03-07T20:50:30.971Z,6.10
2018-03-07T20:53:08.630Z,6.10
2018-03-07T20:55:43.785Z,6.00
2018-03-07T20:58:18.492Z,6.00
2018-03-07T21:00:53.227Z,6.00
2018-03-07T21:03:30.585Z,6.00
2018-03-07T21:06:06.089Z,6.00
2018-03-07T21:08:41.176Z,5.90
2018-03-07T21:11:17.888Z,5.90
2018-03-07T21:13:54.208Z,5.90
2018-03-07T21:16:29.449Z,5.80
2018-03-07T21:19:05.311Z,5.80
2018-03-07T21:21:39.785Z,5.80
2018-03-07T21:24:14.066Z,5.80
2018-03-07T21:26:49.346Z,5.70
2018-03-07T21:29:24.662Z,5.70
2018-03-07T21:32:00.619Z,5.70
2018-03-07T21:34:35.312Z,5.60
2018-03-07T21:37:09.731Z,5.60
2018-03-07T21:39:44.093Z,5.60
2018-03-07T21:42:20.669Z,5.60
2018-03-07T21:44:57.397Z,5.50
2018-03-07T21:47:33.327Z,5.50
2018-03-07T21:50:08.276Z,5.40
2018-03-07T21:52:42.903Z,5.40
2018-03-07T21:55:17.535Z,5.40
2018-03-07T21:57:51.869Z,5.30
2018-03-07T22:00:26.839Z,5.30
2018-03-07T22:03:02.393Z,5.30
2018-03-07T22:05:37.009Z,5.20
2018-03-07T22:08:12.254Z,5.20
2018-03-07T22:10:47.250Z,5.20
2018-03-07T22:13:22.110Z,5.10
2018-03-07T22:15:56.908Z,5.10
2018-03-07T22:18:31.525Z,5.10
2018-03-07T22:21:05.903Z,5.10
2018-03-07T22:23:40.241Z,5.00
2018-03-07T22:26:14.458Z,5.00
2018-03-07T22:28:48.892Z,4.90
2018-03-07T22:31:24.054Z,4.90
2018-03-07T22:33:58.765Z,4.90
2018-03-07T22:36:33.065Z,4.90
2018-03-07T22:39:08.158Z,4.80
2018-03-07T22:41:42.994Z,4.80
2018-03-07T22:44:19.035Z,4.80
2018-03-07T22:46:53.841Z,4.70
2018-03-07T22:49:28.532Z,4.80
2018-03-07T22:52:03.472Z,4.70
2018-03-07T22:54:38.328Z,4.70
2018-03-07T22:57:13.330Z,4.60
2018-03-07T22:59:47.916Z,4.60
2018-03-07T23:02:22.460Z,4.60
2018-03-07T23:04:56.496Z,4.60
2018-03-07T23:07:30.277Z,4.60
2018-03-07T23:10:04.479Z,4.60
2018-03-07T23:12:37.231Z,4.60
2018-03-07T23:15:10.576Z,4.60
2018-03-07T23:17:44.623Z,4.60
2018-03-07T23:20:17.409Z,4.50
2018-03-07T23:22:49.848Z,4.60
2018-03-07T23:25:22.320Z,4.60
2018-03-07T23:27:55.600Z,4.60
2018-03-07T23:30:27.965Z,4.60
2018-03-07T23:33:00.366Z,4.60
2018-03-07T23:35:33.508Z,4.50
2018-03-07T23:38:06.115Z,4.50
2018-03-07T23:40:38.627Z,4.60
2018-03-07T23:43:11.066Z,4.60
2018-03-07T23:45:43.540Z,4.50
2018-03-07T23:48:15.881Z,4.50
2018-03-07T23:50:48.439Z,4.50
2018-03-07T23:53:21.033Z,4.50
2018-03-07T23:55:53.579Z,4.50
2018-03-07T23:58:26.046Z,4.50
